Time;durP1;ratioP1;P1;durP2;ratioP2;P2;SDS_P1;SDS_P2;PMS_P1;PMS_P2;Temp;Humidity;BMP_temperature;BMP_pressure;BME280_temperature;BME280_humidity;BME280_pressure;Samples;Min_cycle;Max_cycle;Signal;HPM_P1;HPM_P2
2022/01/24 00:00:13;;;;;;;3.57;3.10;;;2.60;96.30;;;;;;4861813;29;20999;-78
2022/01/24 00:02:41;;;;;;;76.13;4.83;;;2.60;96.30;;;;;;4863256;29;20922;-78
2022/01/24 00:05:07;;;;;;;120.27;5.57;;;2.50;96.30;;;;;;4846700;29;20453;-79
2022/01/24 00:07:32;;;;;;;125.33;5.43;;;2.40;96.30;;;;;;4846777;29;20844;-77
2022/01/24 00:10:01;;;;;;;82.53;4.93;;;2.40;96.30;;;;;;4846634;29;20502;-78
2022/01/24 00:12:39;;;;;;;41.97;4.30;;;2.40;96.30;;;;;;4863342;29;20174;-78
2022/01/24 00:17:37;;;;;;;3.50;3.20;;;2.40;96.30;;;;;;4863164;29;20482;-79
2022/01/24 00:26:43;;;;;;;3.00;2.73;;;2.40;96.30;;;;;;4863154;29;20431;-78
2022/01/24 00:28:22;;;;;;;304.93;7.90;;;2.50;96.30;;;;;;4862888;29;20426;-79
2022/01/24 00:30:48;;;;;;;208.63;6.87;;;2.40;96.30;;;;;;4862880;29;20636;-79
2022/01/24 00:33:15;;;;;;;336.07;8.60;;;2.40;96.30;;;;;;4862841;29;20182;-80
2022/01/24 00:35:40;;;;;;;169.83;5.40;;;2.40;96.30;;;;;;4837606;29;20936;-80
2022/01/24 00:38:06;;;;;;;28.73;2.80;;;2.30;96.30;;;;;;4844409;29;20427;-80
2022/01/24 00:40:39;;;;;;;52.97;3.50;;;2.30;96.30;;;;;;4844305;29;20199;-78
2022/01/24 00:43:16;;;;;;;76.23;3.27;;;2.20;96.30;;;;;;4845332;29;20222;-79
2022/01/24 00:55:52;;;;;;;6.63;2.50;;;2.30;96.30;;;;;;4844191;29;20434;-78
2022/01/24 00:58:17;;;;;;;2.30;2.10;;;2.30;96.30;;;;;;4843911;29;20412;-78
2022/01/24 05:01:31;;;;;;;3.23;2.50;;;2.10;96.30;;;;;;5350355;23;20508;-79
2022/01/24 05:03:57;;;;;;;3.87;2.87;;;2.10;96.30;;;;;;4882529;29;20449;-78
2022/01/24 05:06:23;;;;;;;3.17;2.87;;;2.10;96.30;;;;;;4899134;29;20180;-81
2022/01/24 05:08:48;;;;;;;5.43;3.77;;;2.10;96.30;;;;;;4882825;29;20208;-80
2022/01/24 05:11:19;;;;;;;4.07;3.47;;;2.10;96.30;;;;;;4891216;29;20567;-79
2022/01/24 06:48:30;;;;;;;73.87;4.07;;;2.30;96.30;;;;;;5428037;24;20488;-77
2022/01/24 06:50:55;;;;;;;91.70;3.40;;;2.20;96.30;;;;;;4916384;29;20970;-76
2022/01/24 06:53:21;;;;;;;101.47;3.10;;;2.30;96.30;;;;;;4916176;29;20180;-76
2022/01/24 06:55:46;;;;;;;63.77;5.20;;;2.20;96.30;;;;;;4916326;29;20600;-78
2022/01/24 06:58:12;;;;;;;164.23;4.30;;;2.20;96.30;;;;;;4916318;29;20184;-76
2022/01/24 07:00:37;;;;;;;136.70;4.50;;;2.20;96.30;;;;;;4915071;29;20208;-77
2022/01/24 07:03:03;;;;;;;82.10;3.77;;;2.20;96.30;;;;;;4916231;29;20566;-77
2022/01/24 07:05:30;;;;;;;134.13;4.90;;;2.20;96.30;;;;;;4916118;29;20179;-77
2022/01/24 07:07:57;;;;;;;41.17;4.30;;;2.20;96.30;;;;;;4915984;29;20184;-77
2022/01/24 07:10:30;;;;;;;7.17;2.57;;;2.20;96.30;;;;;;4914929;29;20476;-77
2022/01/24 07:12:55;;;;;;;9.23;2.60;;;2.20;96.30;;;;;;4899182;29;20425;-77
2022/01/24 07:15:29;;;;;;;13.47;2.30;;;2.20;96.30;;;;;;4914741;29;20428;-78
2022/01/24 07:18:13;;;;;;;32.70;2.87;;;2.30;96.30;;;;;;4916191;29;20219;-78
2022/01/24 07:20:39;;;;;;;27.20;3.30;;;2.30;96.30;;;;;;4899112;29;20811;-78
2022/01/24 07:23:05;;;;;;;81.27;4.00;;;2.30;96.30;;;;;;4916058;29;20467;-79
2022/01/24 07:25:31;;;;;;;169.17;4.73;;;2.40;96.30;;;;;;4915763;29;20181;-78
2022/01/24 07:27:57;;;;;;;161.73;4.70;;;2.40;96.30;;;;;;4915945;29;20916;-77
2022/01/24 07:30:23;;;;;;;161.00;5.63;;;2.40;96.30;;;;;;4915967;29;20260;-77
2022/01/24 07:32:49;;;;;;;205.53;5.67;;;2.40;96.30;;;;;;4915937;29;20427;-77
2022/01/24 07:35:15;;;;;;;104.47;3.60;;;2.40;96.30;;;;;;4898754;29;20433;-77
2022/01/24 07:37:40;;;;;;;422.80;11.20;;;2.50;96.30;;;;;;4915946;29;20881;-77
2022/01/24 07:40:09;;;;;;;221.97;4.73;;;2.60;96.30;;;;;;4915925;29;20200;-77
2022/01/24 07:43:10;;;;;;;10.93;2.60;;;2.60;96.30;;;;;;4915850;29;20256;-77
2022/01/24 07:45:26;;;;;;;2.50;1.30;;;2.60;96.30;;;;;;4913574;29;20440;-77
2022/01/24 07:47:52;;;;;;;2.87;1.77;;;2.70;96.30;;;;;;4915741;29;20808;-78
2022/01/24 07:50:22;;;;;;;2.43;1.60;;;2.80;96.30;;;;;;4915849;29;20196;-79
2022/01/24 07:52:48;;;;;;;6.07;2.07;;;2.80;96.30;;;;;;4915826;29;20421;-77
2022/01/24 07:55:14;;;;;;;3.60;2.90;;;2.80;96.30;;;;;;4898579;29;20424;-77
2022/01/24 07:57:39;;;;;;;6.50;2.50;;;2.90;96.30;;;;;;4914562;29;20851;-77
2022/01/24 08:00:07;;;;;;;3.87;2.47;;;2.90;96.30;;;;;;4914563;29;20176;-77
2022/01/24 08:02:33;;;;;;;2.50;2.00;;;3.00;96.30;;;;;;4898633;29;20659;-78
2022/01/24 08:04:59;;;;;;;5.63;2.00;;;3.00;96.30;;;;;;4898564;29;20471;-78
2022/01/24 08:07:24;;;;;;;2.60;1.97;;;3.10;96.30;;;;;;4898673;29;20969;-79
2022/01/24 08:09:50;;;;;;;3.27;2.27;;;3.10;96.30;;;;;;4898694;29;20185;-77
2022/01/24 08:12:17;;;;;;;2.80;2.10;;;3.20;96.30;;;;;;4898608;29;20297;-77
2022/01/24 08:14:43;;;;;;;2.67;2.00;;;3.30;96.30;;;;;;4915455;29;20243;-78
2022/01/24 08:17:08;;;;;;;2.70;1.70;;;3.40;96.30;;;;;;4915565;29;20925;-77
2022/01/24 08:19:34;;;;;;;2.77;1.90;;;3.40;96.30;;;;;;4914363;29;20677;-78
2022/01/24 08:22:00;;;;;;;2.50;1.53;;;3.40;96.30;;;;;;4901741;29;20236;-78
2022/01/24 08:24:25;;;;;;;3.07;2.43;;;3.50;96.30;;;;;;4901839;29;20211;-77
2022/01/24 08:26:51;;;;;;;2.27;1.70;;;3.70;96.30;;;;;;4919009;29;20700;-77
2022/01/24 08:29:16;;;;;;;2.77;1.77;;;3.80;96.30;;;;;;4919087;29;20180;-77
2022/01/24 08:31:42;;;;;;;2.13;1.57;;;3.80;96.30;;;;;;4917691;29;20677;-78
2022/01/24 08:34:07;;;;;;;2.03;1.27;;;3.90;96.30;;;;;;4918985;29;20184;-77
2022/01/24 08:36:34;;;;;;;3.13;2.10;;;4.10;96.30;;;;;;4902127;29;20255;-77
2022/01/24 08:39:06;;;;;;;2.30;2.10;;;4.20;96.30;;;;;;4900007;29;20177;-77
2022/01/24 08:44:20;;;;;;;2.13;1.73;;;4.50;96.30;;;;;;4904492;29;20483;-78
2022/01/24 08:46:47;;;;;;;2.30;1.87;;;4.60;96.30;;;;;;4886971;29;20421;-78
2022/01/24 08:49:13;;;;;;;2.93;1.93;;;4.80;96.30;;;;;;4899588;29;20448;-79
2022/01/24 08:51:38;;;;;;;2.70;2.33;;;5.00;96.30;;;;;;4919762;29;20445;-78
2022/01/24 08:54:05;;;;;;;3.07;2.43;;;5.10;96.30;;;;;;4907654;29;20272;-79
2022/01/24 08:56:31;;;;;;;1.70;1.53;;;5.20;96.30;;;;;;4901292;29;20224;-79
2022/01/24 08:58:56;;;;;;;1.63;1.27;;;5.00;96.30;;;;;;4919779;29;20421;-79
2022/01/24 09:01:22;;;;;;;3.33;2.13;;;5.00;96.30;;;;;;4906779;29;20196;-80
2022/01/24 09:03:47;;;;;;;5.13;3.23;;;5.00;96.30;;;;;;4921032;29;20209;-80
2022/01/24 09:06:17;;;;;;;4.40;3.30;;;5.00;96.30;;;;;;4906294;29;20188;-80
2022/01/24 09:08:42;;;;;;;4.00;2.87;;;5.00;96.30;;;;;;4903994;29;20603;-80
2022/01/24 09:11:08;;;;;;;2.80;2.10;;;4.90;96.30;;;;;;4920051;29;20433;-80
2022/01/24 09:13:34;;;;;;;1.73;1.40;;;4.70;96.30;;;;;;4919640;29;20259;-80
2022/01/24 09:16:00;;;;;;;3.37;2.43;;;4.70;96.30;;;;;;4918450;29;20641;-78
2022/01/24 09:18:27;;;;;;;2.80;2.40;;;4.50;96.30;;;;;;4918104;29;20245;-80
2022/01/24 09:20:52;;;;;;;2.80;1.83;;;4.30;96.30;;;;;;4919834;29;20925;-80
2022/01/24 09:23:18;;;;;;;2.00;1.70;;;4.60;96.30;;;;;;4919575;29;20483;-79
2022/01/24 09:25:44;;;;;;;1.87;1.67;;;4.50;96.30;;;;;;4919719;29;20180;-80
2022/01/24 09:28:10;;;;;;;1.73;1.20;;;4.70;96.30;;;;;;4918351;29;20216;-79
2022/01/24 09:30:35;;;;;;;1.70;1.50;;;4.60;96.30;;;;;;4918579;29;20204;-79
2022/01/24 09:33:02;;;;;;;2.53;1.70;;;4.70;96.30;;;;;;4919504;29;20302;-79
2022/01/24 09:35:28;;;;;;;3.00;2.57;;;4.80;96.30;;;;;;4913185;29;20177;-78
2022/01/24 09:37:54;;;;;;;3.70;3.03;;;4.90;96.30;;;;;;4901909;29;20409;-79
2022/01/24 09:40:20;;;;;;;2.77;2.33;;;5.00;96.30;;;;;;4902034;29;20417;-78
2022/01/24 09:42:47;;;;;;;3.00;2.60;;;5.00;96.30;;;;;;4901010;29;20795;-80
2022/01/24 09:45:15;;;;;;;2.90;2.70;;;5.10;96.30;;;;;;4901523;29;20213;-79
2022/01/24 09:47:40;;;;;;;2.60;2.40;;;5.20;96.30;;;;;;4901332;29;20469;-79
2022/01/24 09:50:08;;;;;;;2.40;2.20;;;5.20;96.30;;;;;;4901117;29;20421;-78
2022/01/24 09:52:34;;;;;;;2.40;1.90;;;5.30;96.30;;;;;;4902374;29;20180;-78
2022/01/24 09:55:00;;;;;;;3.00;1.80;;;5.20;96.30;;;;;;4902145;29;20423;-78
2022/01/24 09:57:25;;;;;;;2.20;1.77;;;5.10;96.30;;;;;;4906829;29;20277;-80
2022/01/24 09:59:51;;;;;;;1.93;1.50;;;5.10;96.30;;;;;;4899066;29;20191;-80
2022/01/24 10:02:17;;;;;;;1.80;1.70;;;4.90;96.30;;;;;;4898435;29;20209;-80
2022/01/24 10:04:42;;;;;;;2.13;1.60;;;4.70;96.30;;;;;;4899566;29;20241;-80
2022/01/24 10:07:15;;;;;;;1.60;1.33;;;4.60;96.30;;;;;;4898553;29;20795;-80
2022/01/24 10:09:51;;;;;;;2.47;1.43;;;4.70;96.30;;;;;;4907731;29;20924;-79
2022/01/24 10:12:35;;;;;;;2.30;1.73;;;4.60;96.30;;;;;;4918886;29;20486;-78
2022/01/24 10:18:04;;;;;;;1.70;1.60;;;4.60;96.30;;;;;;4919166;29;20427;-80
2022/01/24 10:20:37;;;;;;;1.30;1.20;;;4.60;96.30;;;;;;4917620;29;20991;-78
2022/01/24 10:23:15;;;;;;;1.33;1.00;;;4.50;96.30;;;;;;4917125;29;21036;-80
2022/01/24 10:25:45;;;;;;;1.00;0.90;;;4.60;96.30;;;;;;4918577;29;20444;-79
2022/01/24 10:28:10;;;;;;;1.50;1.10;;;4.60;96.30;;;;;;4917727;29;20423;-79
2022/01/24 10:30:36;;;;;;;1.47;1.20;;;4.70;96.30;;;;;;4917464;29;20433;-80
2022/01/24 10:33:04;;;;;;;1.77;1.30;;;4.80;96.30;;;;;;4917837;29;20183;-78
2022/01/24 10:35:43;;;;;;;2.80;1.73;;;4.70;96.30;;;;;;4911619;29;20181;-78
2022/01/24 10:38:15;;;;;;;1.83;1.43;;;4.90;96.30;;;;;;4901169;29;20405;-79
2022/01/24 10:40:51;;;;;;;2.73;1.57;;;5.00;96.30;;;;;;4900726;29;20456;-79
2022/01/24 10:43:22;;;;;;;1.70;1.30;;;5.10;96.30;;;;;;4898912;29;20456;-78
2022/01/24 10:45:49;;;;;;;2.10;1.77;;;5.10;96.30;;;;;;4897678;29;20413;-78
2022/01/24 10:48:24;;;;;;;1.70;1.60;;;5.10;96.30;;;;;;4897828;29;20441;-78
2022/01/24 10:51:10;;;;;;;1.60;1.17;;;5.10;96.30;;;;;;4899182;29;20420;-78
2022/01/24 10:53:44;;;;;;;2.00;1.60;;;5.10;96.30;;;;;;4898758;29;20409;-77
2022/01/24 10:56:31;;;;;;;1.20;1.10;;;5.20;96.30;;;;;;4898709;29;20434;-77
2022/01/24 10:59:18;;;;;;;1.70;1.50;;;5.10;96.30;;;;;;4897885;29;20439;-77
2022/01/24 11:01:50;;;;;;;1.63;0.90;;;5.10;96.30;;;;;;4918703;29;20436;-79
2022/01/24 11:04:16;;;;;;;1.20;1.00;;;5.00;96.30;;;;;;4896377;29;20469;-78
2022/01/24 11:06:47;;;;;;;1.30;1.20;;;5.00;96.30;;;;;;4896454;29;20946;-79
2022/01/24 11:09:27;;;;;;;1.10;1.00;;;5.10;96.30;;;;;;4903417;29;20424;-79
2022/01/24 11:11:55;;;;;;;2.10;1.50;;;5.00;96.30;;;;;;4915594;29;20440;-78
2022/01/24 11:14:23;;;;;;;1.20;1.00;;;4.90;96.30;;;;;;4915845;29;20424;-77
2022/01/24 11:16:50;;;;;;;1.93;1.63;;;4.90;96.30;;;;;;4916825;29;20546;-79
2022/01/24 11:19:28;;;;;;;1.77;1.00;;;4.80;96.30;;;;;;4916825;29;20988;-79
2022/01/24 11:24:38;;;;;;;1.20;1.00;;;5.00;96.30;;;;;;5945536;23;20462;-78
2022/01/24 11:27:05;;;;;;;1.00;0.70;;;5.00;96.30;;;;;;4897281;29;20452;-77
2022/01/24 11:29:31;;;;;;;1.30;1.20;;;5.10;96.30;;;;;;4897368;29;20412;-76
2022/01/24 11:32:26;;;;;;;1.30;1.17;;;5.10;96.30;;;;;;4897255;29;20429;-77
2022/01/24 11:34:54;;;;;;;1.10;1.00;;;5.00;96.30;;;;;;4891540;29;20556;-77
2022/01/24 11:37:39;;;;;;;1.20;1.00;;;5.00;96.30;;;;;;4897542;29;20417;-77
2022/01/24 11:40:17;;;;;;;1.53;0.90;;;5.10;96.30;;;;;;4880504;29;20477;-77
2022/01/24 11:42:47;;;;;;;1.40;1.00;;;5.10;96.30;;;;;;4897495;29;20448;-77
2022/01/24 11:45:18;;;;;;;1.40;1.00;;;5.10;96.30;;;;;;4899641;29;20473;-77
2022/01/24 11:47:46;;;;;;;3.13;1.27;;;5.20;96.30;;;;;;4882737;29;20471;-76
2022/01/24 11:50:23;;;;;;;1.10;0.90;;;5.30;96.30;;;;;;4897012;29;20425;-77
2022/01/24 11:52:50;;;;;;;1.30;1.17;;;5.30;96.30;;;;;;4897041;29;20985;-77
2022/01/24 11:55:26;;;;;;;1.70;1.47;;;5.20;96.30;;;;;;4882326;29;20457;-76
2022/01/24 11:57:58;;;;;;;1.07;0.93;;;5.00;96.30;;;;;;4884130;29;20496;-76
2022/01/24 12:00:26;;;;;;;2.20;1.60;;;4.90;96.30;;;;;;4901584;29;20587;-77
2022/01/24 12:02:56;;;;;;;1.70;1.10;;;5.10;96.30;;;;;;4901468;29;21072;-77
2022/01/24 12:05:45;;;;;;;1.33;0.90;;;5.20;96.30;;;;;;4901339;29;20826;-77
2022/01/24 12:08:21;;;;;;;0.90;0.70;;;5.30;96.30;;;;;;4904352;29;20421;-77
2022/01/24 12:10:47;;;;;;;1.80;1.10;;;5.30;96.30;;;;;;4901097;29;20520;-77
2022/01/24 12:13:26;;;;;;;1.80;0.90;;;5.20;96.30;;;;;;4884050;29;20476;-77
2022/01/24 12:16:01;;;;;;;2.00;1.20;;;5.10;96.30;;;;;;4900527;29;20557;-78
2022/01/24 12:18:27;;;;;;;2.23;1.30;;;4.90;96.30;;;;;;4900576;29;20446;-78
2022/01/24 12:21:06;;;;;;;1.60;1.50;;;4.90;96.30;;;;;;4900643;29;20437;-78
2022/01/24 12:23:53;;;;;;;1.57;1.13;;;4.80;96.30;;;;;;4900731;29;20512;-78
2022/01/24 12:26:18;;;;;;;1.10;1.00;;;4.70;96.30;;;;;;4883343;29;20456;-78
2022/01/24 12:28:46;;;;;;;1.10;1.00;;;4.70;96.30;;;;;;4883800;29;20796;-78
2022/01/24 12:31:38;;;;;;;1.30;1.00;;;4.80;96.30;;;;;;4900396;29;20227;-78
2022/01/24 12:34:27;;;;;;;1.47;1.03;;;4.90;96.30;;;;;;4900492;29;20901;-78
2022/01/24 12:37:00;;;;;;;1.00;0.80;;;4.90;96.30;;;;;;4900650;29;20423;-78
2022/01/24 12:39:46;;;;;;;2.57;0.80;;;5.00;96.30;;;;;;4883619;29;20476;-76
2022/01/24 12:42:58;;;;;;;0.90;0.70;;;5.00;96.30;;;;;;4900695;29;20953;-78
2022/01/24 12:48:15;;;;;;;1.83;0.70;;;4.90;96.30;;;;;;4900622;29;20408;-77
2022/01/24 12:50:48;;;;;;;0.90;0.60;;;4.90;96.30;;;;;;4900311;29;20432;-77
2022/01/24 12:53:16;;;;;;;0.87;0.63;;;4.90;96.30;;;;;;4900547;29;20421;-77
2022/01/24 12:55:43;;;;;;;0.80;0.60;;;4.80;96.30;;;;;;4900072;29;20413;-77
2022/01/24 12:58:09;;;;;;;0.93;0.63;;;4.60;96.30;;;;;;4900139;29;20427;-77
2022/01/24 13:00:35;;;;;;;0.90;0.60;;;4.70;96.30;;;;;;4899412;29;20937;-75
2022/01/24 13:03:00;;;;;;;0.90;0.70;;;4.80;96.30;;;;;;4899353;29;20228;-76
2022/01/24 13:05:28;;;;;;;0.93;0.70;;;4.90;96.30;;;;;;4899236;29;20185;-75
2022/01/24 13:07:56;;;;;;;0.90;0.60;;;4.90;96.30;;;;;;4898930;29;20173;-75
2022/01/24 13:10:24;;;;;;;1.23;0.60;;;4.90;96.30;;;;;;4899460;29;20413;-76
2022/01/24 13:13:03;;;;;;;0.80;0.50;;;4.90;96.30;;;;;;4901771;29;20425;-79
2022/01/24 13:21:08;;;;;;;1.00;0.70;;;4.70;96.30;;;;;;4899243;29;20433;-75
2022/01/24 13:23:35;;;;;;;1.10;0.67;;;4.50;96.30;;;;;;4899142;29;20945;-75
2022/01/24 13:26:04;;;;;;;0.97;0.60;;;4.60;96.30;;;;;;4898869;29;20448;-74
2022/01/24 13:28:30;;;;;;;1.20;0.63;;;4.60;96.30;;;;;;4882071;29;20421;-75
2022/01/24 13:31:02;;;;;;;0.97;0.63;;;4.60;96.30;;;;;;4898817;29;21001;-75
2022/01/24 13:33:30;;;;;;;0.90;0.63;;;4.50;96.30;;;;;;4897605;29;20180;-75
2022/01/24 13:35:59;;;;;;;0.90;0.60;;;4.50;96.30;;;;;;4898846;29;20823;-75
2022/01/24 13:38:30;;;;;;;0.97;0.70;;;4.50;96.30;;;;;;4881995;29;20512;-74
2022/01/24 13:41:09;;;;;;;0.90;0.70;;;4.50;96.30;;;;;;4881721;29;20448;-76
2022/01/24 13:43:38;;;;;;;0.80;0.50;;;4.50;96.30;;;;;;4898779;29;20516;-75
2022/01/24 13:46:16;;;;;;;1.00;0.90;;;4.50;96.30;;;;;;4898503;29;20800;-77
2022/01/24 13:48:52;;;;;;;0.90;0.60;;;4.50;96.30;;;;;;4881738;29;20476;-76
2022/01/24 13:51:21;;;;;;;1.20;0.70;;;4.50;96.30;;;;;;4881940;29;20445;-76
2022/01/24 13:53:53;;;;;;;0.83;0.60;;;4.40;96.30;;;;;;4898778;29;20413;-75
2022/01/24 13:56:27;;;;;;;1.07;0.67;;;4.30;96.30;;;;;;4898476;29;20492;-75
2022/01/24 13:59:12;;;;;;;0.90;0.60;;;4.40;96.30;;;;;;4898654;29;20508;-75
2022/01/24 14:01:51;;;;;;;1.20;0.70;;;4.30;96.30;;;;;;4881698;29;20444;-75
2022/01/24 14:04:30;;;;;;;2.30;1.97;;;4.30;96.30;;;;;;4898292;29;20980;-76
2022/01/24 14:06:58;;;;;;;1.40;1.30;;;4.20;96.30;;;;;;4881621;29;20454;-75
2022/01/24 14:09:33;;;;;;;1.20;0.70;;;4.10;96.30;;;;;;4898494;29;20414;-75
2022/01/24 14:11:59;;;;;;;0.93;0.70;;;4.20;96.30;;;;;;4898321;29;20436;-75
2022/01/24 14:14:37;;;;;;;1.40;1.30;;;4.10;96.30;;;;;;4898099;29;20465;-75
2022/01/24 14:19:42;;;;;;;3.97;1.73;;;4.10;96.30;;;;;;4897979;29;20501;-74
2022/01/24 14:22:10;;;;;;;5.43;4.27;;;4.10;96.30;;;;;;4898223;29;20441;-75
2022/01/24 14:24:45;;;;;;;3.70;3.13;;;4.00;96.30;;;;;;4897810;29;21092;-75
2022/01/24 14:27:11;;;;;;;4.23;2.20;;;4.00;96.30;;;;;;4873771;29;20938;-75
2022/01/24 14:29:38;;;;;;;1.73;1.60;;;3.90;96.30;;;;;;4894089;29;21128;-75
2022/01/24 14:32:12;;;;;;;1.37;0.90;;;3.90;96.30;;;;;;4873049;29;20986;-75
2022/01/24 14:34:38;;;;;;;1.30;0.97;;;4.00;96.30;;;;;;4862406;29;20437;-75
2022/01/24 14:37:05;;;;;;;1.20;1.10;;;3.90;96.30;;;;;;4883196;29;20434;-75
2022/01/24 14:39:47;;;;;;;1.20;0.67;;;3.90;96.30;;;;;;5109890;27;20505;-75
2022/01/24 14:42:26;;;;;;;0.80;0.60;;;3.80;96.30;;;;;;5108276;28;20435;-75
2022/01/24 14:44:54;;;;;;;0.90;0.70;;;3.80;96.30;;;;;;5089336;28;20395;-76
2022/01/24 14:47:22;;;;;;;1.30;0.80;;;3.70;96.30;;;;;;5089182;28;20400;-74
2022/01/24 14:49:47;;;;;;;1.00;0.87;;;3.80;96.30;;;;;;5089256;28;21036;-73
2022/01/24 14:52:17;;;;;;;1.30;0.97;;;3.70;96.30;;;;;;5073500;28;20421;-73
2022/01/24 14:54:42;;;;;;;1.03;0.90;;;3.60;96.30;;;;;;5084541;28;20166;-74
2022/01/24 14:57:09;;;;;;;1.40;1.17;;;3.60;96.30;;;;;;5069071;28;20398;-73
2022/01/24 14:59:36;;;;;;;1.50;1.20;;;3.60;96.30;;;;;;5069144;28;20525;-73
2022/01/24 15:02:02;;;;;;;6.50;1.73;;;3.60;96.30;;;;;;5068910;28;20449;-74
2022/01/24 15:04:28;;;;;;;4.10;2.30;;;3.50;96.30;;;;;;5078220;28;20434;-74
2022/01/24 15:06:54;;;;;;;13.53;6.87;;;3.50;96.30;;;;;;5089242;28;20392;-74
2022/01/24 15:09:23;;;;;;;7.70;4.50;;;3.50;96.30;;;;;;5089070;28;21533;-74
2022/01/24 15:11:50;;;;;;;3.50;2.60;;;3.50;96.30;;;;;;5070951;28;20324;-76
2022/01/24 15:14:22;;;;;;;2.20;1.83;;;3.40;96.30;;;;;;5085958;28;20937;-78
2022/01/24 15:27:37;;;;;;;46.13;35.43;;;3.30;96.30;;;;;;5087987;28;20426;-79
2022/01/24 15:30:06;;;;;;;9.50;7.90;;;3.20;96.30;;;;;;5088794;28;20424;-78
2022/01/24 15:32:31;;;;;;;3.90;3.60;;;3.20;96.30;;;;;;5088296;28;20444;-79
2022/01/24 15:34:57;;;;;;;2.23;1.57;;;3.20;96.30;;;;;;5070430;28;20411;-79
2022/01/24 15:37:22;;;;;;;23.87;16.20;;;3.10;96.30;;;;;;5088113;28;20651;-79
2022/01/24 15:39:48;;;;;;;17.87;12.97;;;3.10;96.30;;;;;;5088851;28;20253;-78
2022/01/24 15:42:18;;;;;;;11.30;7.13;;;3.10;96.30;;;;;;5090661;28;20191;-79
2022/01/24 15:49:38;;;;;;;1.57;1.47;;;3.00;96.30;;;;;;5083662;28;20802;-76
2022/01/24 15:52:04;;;;;;;2.17;1.70;;;3.00;96.30;;;;;;5091368;28;20226;-76
2022/01/24 15:54:31;;;;;;;3.10;2.00;;;3.00;96.30;;;;;;5087042;28;20418;-77
2022/01/24 15:59:41;;;;;;;1.30;1.10;;;2.90;96.30;;;;;;5055808;28;20549;-78
2022/01/24 16:02:07;;;;;;;6.13;2.83;;;2.90;96.30;;;;;;5036448;28;20966;-77
2022/01/24 16:04:33;;;;;;;7.47;4.97;;;2.80;96.30;;;;;;5037343;28;20571;-78
2022/01/24 16:06:59;;;;;;;2.40;2.20;;;2.80;96.30;;;;;;5037843;28;20230;-77
2022/01/24 16:09:24;;;;;;;7.30;4.50;;;2.70;96.30;;;;;;5070516;28;20178;-77
2022/01/24 16:11:50;;;;;;;3.27;2.00;;;2.80;96.30;;;;;;5077255;28;20451;-78
2022/01/24 16:14:16;;;;;;;1.50;1.33;;;2.80;96.30;;;;;;5094521;28;20281;-78
2022/01/24 16:16:41;;;;;;;12.57;10.30;;;2.70;96.30;;;;;;5094500;28;20258;-78
2022/01/24 16:19:07;;;;;;;2.37;2.17;;;2.70;96.30;;;;;;5076184;28;21031;-78
2022/01/24 16:21:42;;;;;;;2.03;1.73;;;2.70;96.30;;;;;;5094407;28;20200;-77
2022/01/24 16:26:34;;;;;;;1.27;1.17;;;2.60;96.30;;;;;;5094049;28;20910;-78
2022/01/24 16:29:00;;;;;;;1.50;1.40;;;2.60;96.30;;;;;;5094245;28;20412;-78
2022/01/24 16:31:25;;;;;;;2.93;1.13;;;2.60;96.30;;;;;;5075994;28;20194;-77
2022/01/24 16:33:51;;;;;;;1.70;1.60;;;2.60;96.30;;;;;;5094265;28;20197;-77
2022/01/24 16:36:17;;;;;;;2.07;1.33;;;2.60;96.30;;;;;;5061930;28;20175;-76
2022/01/24 16:38:46;;;;;;;2.37;1.40;;;2.60;96.30;;;;;;5073715;28;20576;-77
2022/01/24 16:41:16;;;;;;;2.30;1.80;;;2.60;96.30;;;;;;5073771;28;20425;-77
2022/01/24 16:43:52;;;;;;;2.20;1.40;;;2.50;96.30;;;;;;5073836;28;20500;-76
2022/01/24 16:49:04;;;;;;;2.30;1.70;;;2.60;96.30;;;;;;5074085;28;20420;-76
2022/01/24 16:51:29;;;;;;;2.20;2.00;;;2.50;96.30;;;;;;5073636;28;20429;-76
2022/01/24 16:53:58;;;;;;;4.87;2.87;;;2.50;96.30;;;;;;5073689;28;20416;-76
2022/01/24 16:56:24;;;;;;;3.53;3.23;;;2.50;96.30;;;;;;5073444;28;20195;-77
2022/01/24 16:58:50;;;;;;;10.63;3.53;;;2.40;96.30;;;;;;5073332;28;20654;-77
2022/01/24 17:01:16;;;;;;;3.50;3.20;;;2.40;96.30;;;;;;5072382;28;20500;-76
2022/01/24 17:03:42;;;;;;;3.60;3.30;;;2.40;96.30;;;;;;5073335;28;20610;-76
2022/01/24 17:06:08;;;;;;;5.17;4.73;;;2.40;96.30;;;;;;5073227;28;20437;-75
2022/01/24 17:08:34;;;;;;;5.80;5.20;;;2.30;96.30;;;;;;5055485;28;20258;-75
2022/01/24 17:11:02;;;;;;;4.33;3.93;;;2.30;96.30;;;;;;5073190;28;20282;-76
2022/01/24 17:13:28;;;;;;;5.13;4.60;;;2.40;96.30;;;;;;5073146;28;20406;-77
2022/01/24 17:15:58;;;;;;;4.80;4.40;;;2.40;96.30;;;;;;5055825;28;20814;-77
2022/01/24 17:18:24;;;;;;;4.30;3.90;;;2.40;96.30;;;;;;5074007;28;20233;-75
2022/01/24 17:20:50;;;;;;;4.50;4.10;;;2.40;96.30;;;;;;5055403;28;20810;-76
2022/01/24 17:23:16;;;;;;;3.97;3.57;;;2.40;96.30;;;;;;5073011;28;20417;-75
2022/01/24 17:25:42;;;;;;;5.83;5.20;;;2.30;96.30;;;;;;5072796;28;20258;-75
2022/01/24 17:28:08;;;;;;;4.70;4.00;;;2.40;96.30;;;;;;5072920;28;20459;-77
2022/01/24 17:30:34;;;;;;;6.23;5.10;;;2.30;96.30;;;;;;5072898;28;20247;-77
2022/01/24 17:33:00;;;;;;;4.07;3.67;;;2.30;96.30;;;;;;5072881;28;20737;-76
2022/01/24 17:35:28;;;;;;;4.70;3.73;;;2.30;96.30;;;;;;5079553;28;20416;-76
2022/01/24 17:37:55;;;;;;;5.47;4.90;;;2.30;96.30;;;;;;5092905;28;20246;-76
2022/01/24 17:40:22;;;;;;;5.27;4.77;;;2.20;96.30;;;;;;5092935;28;20404;-77
2022/01/24 17:42:48;;;;;;;5.23;4.73;;;2.20;96.30;;;;;;5092990;28;20392;-76
2022/01/24 17:45:14;;;;;;;5.20;4.70;;;2.30;96.30;;;;;;5092698;28;20408;-77
2022/01/24 17:47:42;;;;;;;5.60;5.10;;;2.20;96.30;;;;;;5092871;28;20416;-76
2022/01/24 17:50:08;;;;;;;6.20;5.17;;;2.30;96.30;;;;;;5092925;28;20427;-76
2022/01/24 17:52:34;;;;;;;4.60;3.93;;;2.30;96.30;;;;;;5074598;28;20428;-76
2022/01/24 17:55:00;;;;;;;6.23;5.33;;;2.30;96.30;;;;;;5074225;28;20808;-76
2022/01/24 17:57:26;;;;;;;5.50;5.00;;;2.30;96.30;;;;;;5092590;28;20415;-75
2022/01/24 17:59:51;;;;;;;5.13;4.63;;;2.20;96.30;;;;;;5092720;28;20198;-76
2022/01/24 18:02:17;;;;;;;7.43;6.17;;;2.20;96.30;;;;;;5092434;28;20273;-76
2022/01/24 18:04:42;;;;;;;8.83;5.90;;;2.20;96.30;;;;;;5092402;28;20175;-77
2022/01/24 18:07:08;;;;;;;7.20;5.07;;;2.20;96.30;;;;;;5074439;28;20174;-77
2022/01/24 18:09:34;;;;;;;6.30;5.73;;;2.20;96.30;;;;;;5092573;28;20178;-76
2022/01/24 18:12:00;;;;;;;6.87;5.30;;;2.20;96.30;;;;;;5092347;28;20198;-76
2022/01/24 18:14:27;;;;;;;6.90;6.00;;;2.20;96.30;;;;;;5092197;28;20661;-76
2022/01/24 18:16:53;;;;;;;9.60;8.60;;;2.20;96.30;;;;;;5092411;28;20404;-78
2022/01/24 18:19:19;;;;;;;6.17;5.57;;;2.20;96.30;;;;;;5074206;28;21005;-76
2022/01/24 18:21:44;;;;;;;8.37;7.33;;;2.20;96.30;;;;;;5092280;28;20424;-75
2022/01/24 18:24:10;;;;;;;8.37;7.57;;;2.20;96.30;;;;;;5092261;28;20185;-75
2022/01/24 18:26:35;;;;;;;5.77;5.17;;;2.20;96.30;;;;;;5092067;28;20634;-78
2022/01/24 18:29:01;;;;;;;8.70;7.00;;;2.20;96.30;;;;;;5090803;28;20177;-77
2022/01/24 18:31:27;;;;;;;8.40;7.23;;;2.20;96.30;;;;;;5053489;28;20199;-77
2022/01/24 18:33:52;;;;;;;5.60;5.10;;;2.20;96.30;;;;;;5054171;28;20312;-77
2022/01/24 18:36:18;;;;;;;5.70;5.10;;;2.20;96.30;;;;;;5067931;28;20178;-77
2022/01/24 18:38:44;;;;;;;10.37;9.30;;;2.10;96.30;;;;;;5073970;28;20210;-76
2022/01/24 18:41:09;;;;;;;4.97;4.57;;;2.10;96.30;;;;;;5092048;28;20634;-76
2022/01/24 18:43:37;;;;;;;5.97;5.40;;;2.10;96.30;;;;;;5090859;28;20194;-77
2022/01/24 18:46:05;;;;;;;8.50;7.67;;;2.10;96.30;;;;;;5052067;28;20197;-74
2022/01/24 18:48:31;;;;;;;6.90;5.53;;;2.10;96.30;;;;;;5053360;28;20432;-74
2022/01/24 18:50:57;;;;;;;10.50;9.13;;;2.10;96.30;;;;;;5071495;28;20429;-74
2022/01/24 18:53:23;;;;;;;6.37;5.77;;;2.10;96.30;;;;;;5071831;28;20565;-74
2022/01/24 18:55:49;;;;;;;6.17;5.10;;;2.10;96.30;;;;;;5053239;28;20262;-74
2022/01/24 18:58:24;;;;;;;9.30;5.80;;;2.10;96.30;;;;;;5049967;28;20562;-74
2022/01/24 19:00:50;;;;;;;7.00;6.40;;;2.10;96.30;;;;;;5052373;28;20987;-77
2022/01/24 19:03:16;;;;;;;8.53;6.53;;;2.10;96.30;;;;;;5071646;28;20510;-75
2022/01/24 19:05:42;;;;;;;6.90;6.20;;;2.10;96.30;;;;;;5071417;28;20277;-73
2022/01/24 19:08:10;;;;;;;6.67;5.90;;;2.10;96.30;;;;;;5071752;28;20905;-75
2022/01/24 19:10:36;;;;;;;9.30;5.90;;;2.10;96.30;;;;;;5053667;28;20191;-75
2022/01/24 19:13:04;;;;;;;6.40;5.77;;;2.10;96.30;;;;;;5071692;28;20558;-74
2022/01/24 19:15:31;;;;;;;6.70;6.00;;;2.10;96.30;;;;;;5071403;28;20898;-74
2022/01/24 19:18:15;;;;;;;8.47;5.77;;;2.10;96.30;;;;;;5071489;28;20451;-75
2022/01/24 19:23:29;;;;;;;7.53;6.00;;;2.10;96.30;;;;;;5056379;28;20409;-78
2022/01/24 19:26:00;;;;;;;6.60;6.00;;;2.10;96.30;;;;;;5053337;28;20551;-78
2022/01/24 19:28:32;;;;;;;5.97;5.40;;;2.00;96.30;;;;;;5045203;28;20929;-78
2022/01/24 19:31:00;;;;;;;7.07;6.00;;;2.00;96.30;;;;;;5048494;28;20531;-78
2022/01/24 19:33:25;;;;;;;7.50;6.80;;;2.10;96.30;;;;;;5062143;28;20767;-78
2022/01/24 19:35:53;;;;;;;8.23;6.40;;;2.10;96.30;;;;;;5049579;28;20425;-77
2022/01/24 19:38:19;;;;;;;7.30;6.50;;;2.10;96.30;;;;;;5047324;28;20207;-77
2022/01/24 19:40:45;;;;;;;7.90;7.10;;;2.00;96.30;;;;;;5073184;28;20446;-77
2022/01/24 19:43:11;;;;;;;9.47;8.40;;;2.00;96.30;;;;;;5074696;28;21128;-78